sensor_id;sensor_type;location;lat;lon;timestamp;P1;durP1;ratioP1;P2;durP2;ratioP2
5042;SDS011;2540;50.928;6.856;2022-10-16T00:00:22;8.13;;;4.03;;
5042;SDS011;2540;50.928;6.856;2022-10-16T00:02:47;9.27;;;3.63;;
5042;SDS011;2540;50.928;6.856;2022-10-16T00:05:12;3.07;;;1.93;;
5042;SDS011;2540;50.928;6.856;2022-10-16T00:07:38;3.70;;;1.50;;
5042;SDS011;2540;50.928;6.856;2022-10-16T00:10:03;2.33;;;1.83;;
5042;SDS011;2540;50.928;6.856;2022-10-16T00:12:28;2.20;;;1.20;;
5042;SDS011;2540;50.928;6.856;2022-10-16T00:14:53;1.63;;;1.53;;
5042;SDS011;2540;50.928;6.856;2022-10-16T00:17:18;1.70;;;1.60;;
5042;SDS011;2540;50.928;6.856;2022-10-16T00:19:43;1.53;;;1.10;;
5042;SDS011;2540;50.928;6.856;2022-10-16T00:22:09;1.33;;;1.23;;
5042;SDS011;2540;50.928;6.856;2022-10-16T00:24:34;1.50;;;1.23;;
5042;SDS011;2540;50.928;6.856;2022-10-16T00:26:59;1.17;;;1.10;;
5042;SDS011;2540;50.928;6.856;2022-10-16T00:29:24;3.40;;;1.40;;
5042;SDS011;2540;50.928;6.856;2022-10-16T00:31:49;4.07;;;1.13;;
5042;SDS011;2540;50.928;6.856;2022-10-16T00:34:15;4.77;;;1.17;;
5042;SDS011;2540;50.928;6.856;2022-10-16T00:36:40;2.57;;;1.47;;
5042;SDS011;2540;50.928;6.856;2022-10-16T00:39:05;2.70;;;1.60;;
5042;SDS011;2540;50.928;6.856;2022-10-16T00:41:30;1.77;;;1.37;;
5042;SDS011;2540;50.928;6.856;2022-10-16T00:43:57;1.40;;;1.30;;
5042;SDS011;2540;50.928;6.856;2022-10-16T00:49:04;9.70;;;1.63;;
5042;SDS011;2540;50.928;6.856;2022-10-16T00:51:30;2.53;;;1.20;;
5042;SDS011;2540;50.928;6.856;2022-10-16T00:53:57;1.40;;;1.30;;
5042;SDS011;2540;50.928;6.856;2022-10-16T00:56:22;4.20;;;1.60;;
5042;SDS011;2540;50.928;6.856;2022-10-16T00:58:47;4.40;;;1.70;;
5042;SDS011;2540;50.928;6.856;2022-10-16T01:01:13;2.70;;;1.40;;
5042;SDS011;2540;50.928;6.856;2022-10-16T01:03:38;2.40;;;1.60;;
5042;SDS011;2540;50.928;6.856;2022-10-16T01:06:23;1.70;;;1.60;;
5042;SDS011;2540;50.928;6.856;2022-10-16T01:09:02;2.50;;;1.90;;
5042;SDS011;2540;50.928;6.856;2022-10-16T01:11:45;2.50;;;1.93;;
5042;SDS011;2540;50.928;6.856;2022-10-16T01:14:15;11.23;;;1.90;;
5042;SDS011;2540;50.928;6.856;2022-10-16T01:16:43;2.17;;;1.87;;
5042;SDS011;2540;50.928;6.856;2022-10-16T01:19:18;2.43;;;2.03;;
5042;SDS011;2540;50.928;6.856;2022-10-16T01:21:45;2.60;;;1.40;;
5042;SDS011;2540;50.928;6.856;2022-10-16T01:24:17;2.03;;;1.80;;
5042;SDS011;2540;50.928;6.856;2022-10-16T01:32:00;2.30;;;2.10;;
5042;SDS011;2540;50.928;6.856;2022-10-16T01:34:33;7.70;;;1.70;;
5042;SDS011;2540;50.928;6.856;2022-10-16T01:37:02;3.73;;;2.00;;
5042;SDS011;2540;50.928;6.856;2022-10-16T01:39:30;1.70;;;1.60;;
5042;SDS011;2540;50.928;6.856;2022-10-16T01:42:19;2.10;;;1.60;;
5042;SDS011;2540;50.928;6.856;2022-10-16T01:44:42;6.53;;;1.67;;
5042;SDS011;2540;50.928;6.856;2022-10-16T01:47:09;1.97;;;1.70;;
5042;SDS011;2540;50.928;6.856;2022-10-16T01:49:35;4.33;;;2.90;;
5042;SDS011;2540;50.928;6.856;2022-10-16T01:52:02;2.67;;;2.00;;
5042;SDS011;2540;50.928;6.856;2022-10-16T01:54:29;2.10;;;1.90;;
5042;SDS011;2540;50.928;6.856;2022-10-16T01:56:56;2.10;;;1.90;;
5042;SDS011;2540;50.928;6.856;2022-10-16T01:59:22;2.30;;;2.10;;
5042;SDS011;2540;50.928;6.856;2022-10-16T02:01:54;2.10;;;1.93;;
5042;SDS011;2540;50.928;6.856;2022-10-16T02:04:31;2.37;;;2.17;;
5042;SDS011;2540;50.928;6.856;2022-10-16T02:06:57;4.37;;;2.37;;
5042;SDS011;2540;50.928;6.856;2022-10-16T02:09:24;2.50;;;2.10;;
5042;SDS011;2540;50.928;6.856;2022-10-16T02:11:50;3.53;;;2.30;;
5042;SDS011;2540;50.928;6.856;2022-10-16T02:14:17;5.23;;;2.63;;
5042;SDS011;2540;50.928;6.856;2022-10-16T02:16:43;3.03;;;2.67;;
5042;SDS011;2540;50.928;6.856;2022-10-16T02:19:09;2.80;;;2.47;;
5042;SDS011;2540;50.928;6.856;2022-10-16T02:21:43;5.13;;;3.30;;
5042;SDS011;2540;50.928;6.856;2022-10-16T02:26:53;2.10;;;2.00;;
5042;SDS011;2540;50.928;6.856;2022-10-16T02:29:23;2.90;;;2.50;;
5042;SDS011;2540;50.928;6.856;2022-10-16T02:31:50;2.27;;;2.07;;
5042;SDS011;2540;50.928;6.856;2022-10-16T02:34:17;2.30;;;2.10;;
5042;SDS011;2540;50.928;6.856;2022-10-16T02:36:43;5.63;;;2.33;;
5042;SDS011;2540;50.928;6.856;2022-10-16T02:39:09;2.53;;;2.10;;
5042;SDS011;2540;50.928;6.856;2022-10-16T02:41:35;2.43;;;2.00;;
5042;SDS011;2540;50.928;6.856;2022-10-16T02:44:00;2.40;;;1.80;;
5042;SDS011;2540;50.928;6.856;2022-10-16T02:46:25;3.30;;;2.17;;
5042;SDS011;2540;50.928;6.856;2022-10-16T02:48:51;2.67;;;2.30;;
5042;SDS011;2540;50.928;6.856;2022-10-16T02:51:16;3.63;;;2.70;;
5042;SDS011;2540;50.928;6.856;2022-10-16T02:53:41;1.90;;;1.80;;
5042;SDS011;2540;50.928;6.856;2022-10-16T02:56:06;2.83;;;1.60;;
5042;SDS011;2540;50.928;6.856;2022-10-16T02:58:31;1.60;;;1.50;;
5042;SDS011;2540;50.928;6.856;2022-10-16T03:00:57;2.20;;;1.90;;
5042;SDS011;2540;50.928;6.856;2022-10-16T03:03:22;3.03;;;1.83;;
5042;SDS011;2540;50.928;6.856;2022-10-16T03:05:47;1.87;;;1.77;;
5042;SDS011;2540;50.928;6.856;2022-10-16T03:08:12;1.70;;;1.60;;
5042;SDS011;2540;50.928;6.856;2022-10-16T03:10:38;1.63;;;1.53;;
5042;SDS011;2540;50.928;6.856;2022-10-16T03:13:03;1.60;;;1.50;;
5042;SDS011;2540;50.928;6.856;2022-10-16T03:15:28;1.70;;;1.60;;
5042;SDS011;2540;50.928;6.856;2022-10-16T03:17:54;1.63;;;1.53;;
5042;SDS011;2540;50.928;6.856;2022-10-16T03:20:19;3.30;;;1.90;;
5042;SDS011;2540;50.928;6.856;2022-10-16T03:22:44;4.53;;;1.77;;
5042;SDS011;2540;50.928;6.856;2022-10-16T03:25:09;1.60;;;1.50;;
5042;SDS011;2540;50.928;6.856;2022-10-16T03:27:34;1.87;;;1.63;;
5042;SDS011;2540;50.928;6.856;2022-10-16T03:30:00;2.13;;;1.93;;
5042;SDS011;2540;50.928;6.856;2022-10-16T03:32:25;1.93;;;1.40;;
5042;SDS011;2540;50.928;6.856;2022-10-16T03:34:50;2.10;;;1.50;;
5042;SDS011;2540;50.928;6.856;2022-10-16T03:37:15;1.40;;;1.30;;
5042;SDS011;2540;50.928;6.856;2022-10-16T03:39:40;5.60;;;1.60;;
5042;SDS011;2540;50.928;6.856;2022-10-16T03:42:06;2.43;;;1.47;;
5042;SDS011;2540;50.928;6.856;2022-10-16T03:44:31;4.00;;;1.40;;
5042;SDS011;2540;50.928;6.856;2022-10-16T03:46:56;1.73;;;1.47;;
5042;SDS011;2540;50.928;6.856;2022-10-16T03:49:21;4.53;;;1.03;;
5042;SDS011;2540;50.928;6.856;2022-10-16T03:51:47;4.07;;;1.30;;
5042;SDS011;2540;50.928;6.856;2022-10-16T03:54:12;1.00;;;1.00;;
5042;SDS011;2540;50.928;6.856;2022-10-16T03:56:37;2.70;;;1.40;;
5042;SDS011;2540;50.928;6.856;2022-10-16T03:59:03;1.57;;;1.47;;
5042;SDS011;2540;50.928;6.856;2022-10-16T04:01:28;3.90;;;1.13;;
5042;SDS011;2540;50.928;6.856;2022-10-16T04:03:53;1.13;;;1.13;;
5042;SDS011;2540;50.928;6.856;2022-10-16T04:06:18;3.00;;;1.70;;
5042;SDS011;2540;50.928;6.856;2022-10-16T04:08:44;1.67;;;1.57;;
5042;SDS011;2540;50.928;6.856;2022-10-16T04:11:09;1.30;;;1.20;;
5042;SDS011;2540;50.928;6.856;2022-10-16T04:13:34;1.33;;;1.23;;
5042;SDS011;2540;50.928;6.856;2022-10-16T04:15:59;1.10;;;1.07;;
5042;SDS011;2540;50.928;6.856;2022-10-16T04:18:25;2.63;;;1.33;;
5042;SDS011;2540;50.928;6.856;2022-10-16T04:20:52;1.70;;;1.60;;
5042;SDS011;2540;50.928;6.856;2022-10-16T04:23:17;1.53;;;1.43;;
5042;SDS011;2540;50.928;6.856;2022-10-16T04:25:42;1.33;;;1.23;;
5042;SDS011;2540;50.928;6.856;2022-10-16T04:28:07;2.63;;;1.37;;
5042;SDS011;2540;50.928;6.856;2022-10-16T04:30:32;2.30;;;1.43;;
5042;SDS011;2540;50.928;6.856;2022-10-16T04:32:58;1.80;;;1.50;;
5042;SDS011;2540;50.928;6.856;2022-10-16T04:35:23;1.37;;;1.27;;
5042;SDS011;2540;50.928;6.856;2022-10-16T04:37:49;2.77;;;1.17;;
5042;SDS011;2540;50.928;6.856;2022-10-16T04:40:15;3.20;;;1.13;;
5042;SDS011;2540;50.928;6.856;2022-10-16T04:42:40;4.27;;;1.27;;
5042;SDS011;2540;50.928;6.856;2022-10-16T04:45:06;1.57;;;1.20;;
5042;SDS011;2540;50.928;6.856;2022-10-16T04:47:32;1.13;;;1.03;;
5042;SDS011;2540;50.928;6.856;2022-10-16T04:49:57;7.90;;;1.73;;
5042;SDS011;2540;50.928;6.856;2022-10-16T04:52:24;2.33;;;1.67;;
5042;SDS011;2540;50.928;6.856;2022-10-16T04:54:50;1.87;;;1.37;;
5042;SDS011;2540;50.928;6.856;2022-10-16T04:57:15;1.63;;;1.53;;
5042;SDS011;2540;50.928;6.856;2022-10-16T04:59:40;1.27;;;1.20;;
5042;SDS011;2540;50.928;6.856;2022-10-16T05:02:06;1.13;;;1.13;;
5042;SDS011;2540;50.928;6.856;2022-10-16T05:04:31;1.40;;;1.30;;
5042;SDS011;2540;50.928;6.856;2022-10-16T05:06:56;2.93;;;1.33;;
5042;SDS011;2540;50.928;6.856;2022-10-16T05:09:21;1.60;;;1.50;;
5042;SDS011;2540;50.928;6.856;2022-10-16T05:11:46;1.10;;;1.00;;
5042;SDS011;2540;50.928;6.856;2022-10-16T05:14:12;1.40;;;1.30;;
5042;SDS011;2540;50.928;6.856;2022-10-16T05:16:37;3.43;;;1.40;;
5042;SDS011;2540;50.928;6.856;2022-10-16T05:19:02;6.53;;;1.30;;
5042;SDS011;2540;50.928;6.856;2022-10-16T05:21:27;2.20;;;1.17;;
5042;SDS011;2540;50.928;6.856;2022-10-16T05:23:53;1.73;;;1.30;;
5042;SDS011;2540;50.928;6.856;2022-10-16T05:26:18;1.53;;;1.43;;
5042;SDS011;2540;50.928;6.856;2022-10-16T05:28:43;1.70;;;1.07;;
5042;SDS011;2540;50.928;6.856;2022-10-16T05:31:08;4.00;;;1.57;;
5042;SDS011;2540;50.928;6.856;2022-10-16T05:33:34;2.53;;;1.47;;
5042;SDS011;2540;50.928;6.856;2022-10-16T05:36:03;1.50;;;1.30;;
5042;SDS011;2540;50.928;6.856;2022-10-16T05:38:29;4.20;;;1.10;;
5042;SDS011;2540;50.928;6.856;2022-10-16T05:40:54;4.90;;;1.70;;
5042;SDS011;2540;50.928;6.856;2022-10-16T05:43:19;4.03;;;1.43;;
5042;SDS011;2540;50.928;6.856;2022-10-16T05:45:52;1.70;;;1.60;;
5042;SDS011;2540;50.928;6.856;2022-10-16T05:48:18;1.33;;;1.23;;
5042;SDS011;2540;50.928;6.856;2022-10-16T05:50:43;5.23;;;1.37;;
5042;SDS011;2540;50.928;6.856;2022-10-16T05:53:08;1.30;;;1.20;;
5042;SDS011;2540;50.928;6.856;2022-10-16T05:55:33;1.90;;;1.80;;
5042;SDS011;2540;50.928;6.856;2022-10-16T05:58:08;2.50;;;1.50;;
5042;SDS011;2540;50.928;6.856;2022-10-16T06:00:33;1.67;;;1.30;;
5042;SDS011;2540;50.928;6.856;2022-10-16T06:02:58;6.03;;;1.80;;
5042;SDS011;2540;50.928;6.856;2022-10-16T06:05:23;1.80;;;1.70;;
5042;SDS011;2540;50.928;6.856;2022-10-16T06:07:48;1.60;;;1.47;;
5042;SDS011;2540;50.928;6.856;2022-10-16T06:10:13;4.00;;;1.30;;
5042;SDS011;2540;50.928;6.856;2022-10-16T06:12:39;4.97;;;1.80;;
5042;SDS011;2540;50.928;6.856;2022-10-16T06:15:04;1.60;;;1.50;;
5042;SDS011;2540;50.928;6.856;2022-10-16T06:17:29;3.30;;;1.63;;
5042;SDS011;2540;50.928;6.856;2022-10-16T06:19:54;1.70;;;1.60;;
5042;SDS011;2540;50.928;6.856;2022-10-16T06:22:20;1.33;;;1.23;;
5042;SDS011;2540;50.928;6.856;2022-10-16T06:24:45;1.70;;;1.60;;
5042;SDS011;2540;50.928;6.856;2022-10-16T06:27:11;2.07;;;1.63;;
5042;SDS011;2540;50.928;6.856;2022-10-16T06:29:36;1.83;;;1.70;;
5042;SDS011;2540;50.928;6.856;2022-10-16T06:32:01;1.50;;;1.40;;
5042;SDS011;2540;50.928;6.856;2022-10-16T06:34:26;2.07;;;1.93;;
5042;SDS011;2540;50.928;6.856;2022-10-16T06:36:52;4.30;;;1.70;;
5042;SDS011;2540;50.928;6.856;2022-10-16T06:39:17;1.80;;;1.60;;
5042;SDS011;2540;50.928;6.856;2022-10-16T06:41:42;5.10;;;2.40;;
5042;SDS011;2540;50.928;6.856;2022-10-16T06:44:07;2.23;;;2.10;;
5042;SDS011;2540;50.928;6.856;2022-10-16T06:46:33;6.57;;;2.43;;
5042;SDS011;2540;50.928;6.856;2022-10-16T06:48:58;4.77;;;2.20;;
5042;SDS011;2540;50.928;6.856;2022-10-16T06:51:24;3.17;;;1.70;;
5042;SDS011;2540;50.928;6.856;2022-10-16T06:53:51;1.90;;;1.70;;
5042;SDS011;2540;50.928;6.856;2022-10-16T06:56:22;3.00;;;2.07;;
5042;SDS011;2540;50.928;6.856;2022-10-16T06:58:48;4.27;;;2.60;;
5042;SDS011;2540;50.928;6.856;2022-10-16T07:01:14;5.70;;;1.80;;
5042;SDS011;2540;50.928;6.856;2022-10-16T07:03:41;2.27;;;1.70;;
5042;SDS011;2540;50.928;6.856;2022-10-16T07:06:07;5.53;;;2.00;;
5042;SDS011;2540;50.928;6.856;2022-10-16T07:08:40;3.30;;;2.70;;
5042;SDS011;2540;50.928;6.856;2022-10-16T07:11:06;3.43;;;1.90;;
5042;SDS011;2540;50.928;6.856;2022-10-16T07:13:37;6.53;;;2.30;;
5042;SDS011;2540;50.928;6.856;2022-10-16T07:16:07;4.93;;;1.87;;
5042;SDS011;2540;50.928;6.856;2022-10-16T07:18:32;4.40;;;2.53;;
5042;SDS011;2540;50.928;6.856;2022-10-16T07:21:31;3.07;;;1.57;;
5042;SDS011;2540;50.928;6.856;2022-10-16T07:23:51;1.70;;;1.43;;
5042;SDS011;2540;50.928;6.856;2022-10-16T07:26:16;4.17;;;2.37;;
5042;SDS011;2540;50.928;6.856;2022-10-16T07:28:42;5.10;;;2.00;;
5042;SDS011;2540;50.928;6.856;2022-10-16T07:31:09;11.00;;;2.00;;
5042;SDS011;2540;50.928;6.856;2022-10-16T07:33:35;4.03;;;1.90;;
5042;SDS011;2540;50.928;6.856;2022-10-16T07:36:00;9.87;;;2.27;;
5042;SDS011;2540;50.928;6.856;2022-10-16T07:38:26;4.37;;;1.80;;
5042;SDS011;2540;50.928;6.856;2022-10-16T07:40:58;4.60;;;1.90;;
5042;SDS011;2540;50.928;6.856;2022-10-16T07:43:24;9.20;;;1.60;;
5042;SDS011;2540;50.928;6.856;2022-10-16T07:45:49;2.90;;;2.23;;
5042;SDS011;2540;50.928;6.856;2022-10-16T07:48:15;2.30;;;2.10;;
5042;SDS011;2540;50.928;6.856;2022-10-16T07:50:41;4.50;;;2.00;;
5042;SDS011;2540;50.928;6.856;2022-10-16T07:53:06;1.70;;;1.50;;
5042;SDS011;2540;50.928;6.856;2022-10-16T07:55:31;3.00;;;2.23;;
5042;SDS011;2540;50.928;6.856;2022-10-16T07:57:57;2.70;;;1.70;;
5042;SDS011;2540;50.928;6.856;2022-10-16T08:00:22;2.40;;;2.20;;
5042;SDS011;2540;50.928;6.856;2022-10-16T08:02:47;1.63;;;1.53;;
5042;SDS011;2540;50.928;6.856;2022-10-16T08:05:12;2.53;;;2.00;;
5042;SDS011;2540;50.928;6.856;2022-10-16T08:07:37;2.30;;;1.97;;
5042;SDS011;2540;50.928;6.856;2022-10-16T08:10:03;2.10;;;1.87;;
5042;SDS011;2540;50.928;6.856;2022-10-16T08:12:28;2.90;;;2.00;;
5042;SDS011;2540;50.928;6.856;2022-10-16T08:14:53;3.60;;;2.60;;
5042;SDS011;2540;50.928;6.856;2022-10-16T08:17:19;2.47;;;2.27;;
5042;SDS011;2540;50.928;6.856;2022-10-16T08:19:44;2.90;;;2.70;;
5042;SDS011;2540;50.928;6.856;2022-10-16T08:22:10;3.93;;;2.33;;
5042;SDS011;2540;50.928;6.856;2022-10-16T08:24:35;4.40;;;2.20;;
5042;SDS011;2540;50.928;6.856;2022-10-16T08:27:01;4.10;;;2.53;;
5042;SDS011;2540;50.928;6.856;2022-10-16T08:29:27;5.07;;;1.70;;
5042;SDS011;2540;50.928;6.856;2022-10-16T08:31:52;2.70;;;1.70;;
5042;SDS011;2540;50.928;6.856;2022-10-16T08:34:17;3.07;;;1.60;;
5042;SDS011;2540;50.928;6.856;2022-10-16T08:36:43;6.40;;;1.60;;
5042;SDS011;2540;50.928;6.856;2022-10-16T08:39:08;1.80;;;1.63;;
5042;SDS011;2540;50.928;6.856;2022-10-16T08:44:24;1.33;;;1.17;;
5042;SDS011;2540;50.928;6.856;2022-10-16T08:49:19;0.90;;;0.70;;
5042;SDS011;2540;50.928;6.856;2022-10-16T08:51:44;1.03;;;0.77;;
5042;SDS011;2540;50.928;6.856;2022-10-16T08:56:56;1.10;;;1.00;;
5042;SDS011;2540;50.928;6.856;2022-10-16T08:59:21;1.83;;;0.80;;
5042;SDS011;2540;50.928;6.856;2022-10-16T09:01:47;3.93;;;0.90;;
5042;SDS011;2540;50.928;6.856;2022-10-16T09:04:26;1.10;;;0.80;;
5042;SDS011;2540;50.928;6.856;2022-10-16T09:06:57;0.87;;;0.87;;
5042;SDS011;2540;50.928;6.856;2022-10-16T09:09:34;0.83;;;0.70;;
5042;SDS011;2540;50.928;6.856;2022-10-16T09:17:22;1.47;;;0.70;;
5042;SDS011;2540;50.928;6.856;2022-10-16T09:19:54;8.33;;;0.80;;
5042;SDS011;2540;50.928;6.856;2022-10-16T09:22:21;0.70;;;0.60;;
5042;SDS011;2540;50.928;6.856;2022-10-16T09:24:49;1.50;;;0.80;;
5042;SDS011;2540;50.928;6.856;2022-10-16T09:27:15;4.03;;;0.77;;
5042;SDS011;2540;50.928;6.856;2022-10-16T09:29:40;2.57;;;0.80;;
5042;SDS011;2540;50.928;6.856;2022-10-16T09:32:15;2.13;;;1.03;;
5042;SDS011;2540;50.928;6.856;2022-10-16T09:34:43;1.33;;;0.87;;
5042;SDS011;2540;50.928;6.856;2022-10-16T09:37:12;1.30;;;0.97;;
5042;SDS011;2540;50.928;6.856;2022-10-16T09:39:47;0.60;;;0.60;;
5042;SDS011;2540;50.928;6.856;2022-10-16T09:42:14;0.70;;;0.70;;
5042;SDS011;2540;50.928;6.856;2022-10-16T09:44:40;2.50;;;0.60;;
5042;SDS011;2540;50.928;6.856;2022-10-16T09:47:12;7.80;;;1.13;;
5042;SDS011;2540;50.928;6.856;2022-10-16T09:49:38;4.43;;;0.70;;
5042;SDS011;2540;50.928;6.856;2022-10-16T09:52:13;0.93;;;0.60;;
5042;SDS011;2540;50.928;6.856;2022-10-16T09:54:49;0.90;;;0.67;;
5042;SDS011;2540;50.928;6.856;2022-10-16T09:57:15;0.50;;;0.50;;
5042;SDS011;2540;50.928;6.856;2022-10-16T09:59:48;1.43;;;0.73;;
5042;SDS011;2540;50.928;6.856;2022-10-16T10:02:14;2.30;;;0.60;;
5042;SDS011;2540;50.928;6.856;2022-10-16T10:04:41;3.60;;;1.00;;
5042;SDS011;2540;50.928;6.856;2022-10-16T10:07:06;0.73;;;0.73;;
5042;SDS011;2540;50.928;6.856;2022-10-16T10:09:42;0.73;;;0.67;;
5042;SDS011;2540;50.928;6.856;2022-10-16T10:12:21;1.43;;;1.07;;
5042;SDS011;2540;50.928;6.856;2022-10-16T10:14:48;2.70;;;0.60;;
5042;SDS011;2540;50.928;6.856;2022-10-16T10:17:18;0.70;;;0.57;;
5042;SDS011;2540;50.928;6.856;2022-10-16T10:24:56;0.83;;;0.70;;
5042;SDS011;2540;50.928;6.856;2022-10-16T10:27:22;2.70;;;0.80;;
5042;SDS011;2540;50.928;6.856;2022-10-16T10:32:47;0.70;;;0.60;;
5042;SDS011;2540;50.928;6.856;2022-10-16T10:35:19;2.90;;;0.90;;
5042;SDS011;2540;50.928;6.856;2022-10-16T10:41:01;0.93;;;0.60;;
5042;SDS011;2540;50.928;6.856;2022-10-16T10:43:22;1.57;;;0.70;;
5042;SDS011;2540;50.928;6.856;2022-10-16T10:45:52;2.97;;;1.03;;
5042;SDS011;2540;50.928;6.856;2022-10-16T10:48:39;2.03;;;1.00;;
5042;SDS011;2540;50.928;6.856;2022-10-16T10:51:12;1.80;;;1.10;;
5042;SDS011;2540;50.928;6.856;2022-10-16T10:53:45;0.70;;;0.57;;
5042;SDS011;2540;50.928;6.856;2022-10-16T11:02:17;3.20;;;0.73;;
5042;SDS011;2540;50.928;6.856;2022-10-16T11:05:15;0.60;;;0.53;;
5042;SDS011;2540;50.928;6.856;2022-10-16T11:07:05;0.80;;;0.80;;
5042;SDS011;2540;50.928;6.856;2022-10-16T11:09:41;1.13;;;0.60;;
5042;SDS011;2540;50.928;6.856;2022-10-16T11:12:10;2.70;;;1.00;;
5042;SDS011;2540;50.928;6.856;2022-10-16T11:14:43;0.50;;;0.50;;
5042;SDS011;2540;50.928;6.856;2022-10-16T11:17:16;0.77;;;0.50;;
5042;SDS011;2540;50.928;6.856;2022-10-16T11:22:25;1.65;;;0.65;;
5042;SDS011;2540;50.928;6.856;2022-10-16T11:27:37;1.00;;;0.70;;
5042;SDS011;2540;50.928;6.856;2022-10-16T11:30:04;3.37;;;0.97;;
5042;SDS011;2540;50.928;6.856;2022-10-16T11:32:35;1.67;;;0.60;;
5042;SDS011;2540;50.928;6.856;2022-10-16T11:35:17;2.70;;;0.90;;
5042;SDS011;2540;50.928;6.856;2022-10-16T11:37:44;0.60;;;0.60;;
5042;SDS011;2540;50.928;6.856;2022-10-16T11:40:17;0.60;;;0.60;;
5042;SDS011;2540;50.928;6.856;2022-10-16T11:42:48;1.40;;;0.67;;
5042;SDS011;2540;50.928;6.856;2022-10-16T11:48:04;0.70;;;0.67;;
5042;SDS011;2540;50.928;6.856;2022-10-16T11:50:33;1.10;;;0.60;;
5042;SDS011;2540;50.928;6.856;2022-10-16T11:55:27;1.50;;;0.63;;
5042;SDS011;2540;50.928;6.856;2022-10-16T12:00:36;2.47;;;0.90;;
5042;SDS011;2540;50.928;6.856;2022-10-16T12:08:24;2.20;;;0.90;;
5042;SDS011;2540;50.928;6.856;2022-10-16T12:10:50;3.50;;;0.70;;
5042;SDS011;2540;50.928;6.856;2022-10-16T12:13:28;2.77;;;0.70;;
5042;SDS011;2540;50.928;6.856;2022-10-16T12:16:05;2.20;;;0.90;;
5042;SDS011;2540;50.928;6.856;2022-10-16T12:18:30;3.40;;;0.77;;
5042;SDS011;2540;50.928;6.856;2022-10-16T12:20:59;1.50;;;0.73;;
5042;SDS011;2540;50.928;6.856;2022-10-16T12:23:29;1.13;;;0.70;;
5042;SDS011;2540;50.928;6.856;2022-10-16T12:25:58;1.03;;;0.60;;
5042;SDS011;2540;50.928;6.856;2022-10-16T12:28:27;0.60;;;0.60;;
5042;SDS011;2540;50.928;6.856;2022-10-16T12:30:53;2.20;;;1.60;;
5042;SDS011;2540;50.928;6.856;2022-10-16T12:33:20;3.40;;;1.70;;
5042;SDS011;2540;50.928;6.856;2022-10-16T12:35:46;0.87;;;0.80;;
5042;SDS011;2540;50.928;6.856;2022-10-16T12:40:43;2.30;;;0.60;;
5042;SDS011;2540;50.928;6.856;2022-10-16T12:43:24;3.60;;;1.03;;
5042;SDS011;2540;50.928;6.856;2022-10-16T12:45:58;1.30;;;0.70;;
5042;SDS011;2540;50.928;6.856;2022-10-16T12:48:24;2.77;;;0.80;;
5042;SDS011;2540;50.928;6.856;2022-10-16T12:50:49;0.70;;;0.60;;
5042;SDS011;2540;50.928;6.856;2022-10-16T12:53:21;1.73;;;0.70;;
5042;SDS011;2540;50.928;6.856;2022-10-16T12:56:00;3.03;;;0.60;;
5042;SDS011;2540;50.928;6.856;2022-10-16T13:16:08;1.23;;;0.60;;
5042;SDS011;2540;50.928;6.856;2022-10-16T13:18:43;1.77;;;0.70;;
5042;SDS011;2540;50.928;6.856;2022-10-16T13:28:46;2.83;;;0.80;;
5042;SDS011;2540;50.928;6.856;2022-10-16T13:31:17;1.27;;;0.70;;
5042;SDS011;2540;50.928;6.856;2022-10-16T13:33:45;1.13;;;0.77;;
5042;SDS011;2540;50.928;6.856;2022-10-16T13:36:18;3.13;;;0.87;;
5042;SDS011;2540;50.928;6.856;2022-10-16T13:38:44;0.80;;;0.60;;
5042;SDS011;2540;50.928;6.856;2022-10-16T13:41:16;1.17;;;0.80;;
5042;SDS011;2540;50.928;6.856;2022-10-16T13:43:45;1.37;;;0.60;;
5042;SDS011;2540;50.928;6.856;2022-10-16T13:46:12;2.20;;;1.00;;
5042;SDS011;2540;50.928;6.856;2022-10-16T13:48:38;3.50;;;0.93;;
5042;SDS011;2540;50.928;6.856;2022-10-16T13:51:04;0.90;;;0.60;;
5042;SDS011;2540;50.928;6.856;2022-10-16T13:53:31;0.93;;;0.60;;
5042;SDS011;2540;50.928;6.856;2022-10-16T13:55:57;6.17;;;0.93;;
5042;SDS011;2540;50.928;6.856;2022-10-16T13:58:22;2.83;;;0.80;;
5042;SDS011;2540;50.928;6.856;2022-10-16T14:01:04;0.80;;;0.63;;
5042;SDS011;2540;50.928;6.856;2022-10-16T14:03:30;1.00;;;0.73;;
5042;SDS011;2540;50.928;6.856;2022-10-16T14:05:57;2.80;;;0.90;;
5042;SDS011;2540;50.928;6.856;2022-10-16T14:08:24;0.90;;;0.60;;
5042;SDS011;2540;50.928;6.856;2022-10-16T14:10:50;1.17;;;0.83;;
5042;SDS011;2540;50.928;6.856;2022-10-16T14:13:20;0.60;;;0.60;;
5042;SDS011;2540;50.928;6.856;2022-10-16T14:15:47;0.60;;;0.50;;
5042;SDS011;2540;50.928;6.856;2022-10-16T14:18:18;3.80;;;0.70;;
5042;SDS011;2540;50.928;6.856;2022-10-16T14:20:44;2.33;;;0.77;;
5042;SDS011;2540;50.928;6.856;2022-10-16T14:23:29;1.70;;;0.90;;
5042;SDS011;2540;50.928;6.856;2022-10-16T14:26:05;1.57;;;0.77;;
5042;SDS011;2540;50.928;6.856;2022-10-16T14:28:30;1.37;;;0.60;;
5042;SDS011;2540;50.928;6.856;2022-10-16T14:30:56;1.30;;;0.80;;
5042;SDS011;2540;50.928;6.856;2022-10-16T14:36:13;9.10;;;0.90;;
5042;SDS011;2540;50.928;6.856;2022-10-16T14:38:43;2.90;;;0.90;;
5042;SDS011;2540;50.928;6.856;2022-10-16T14:41:15;1.10;;;0.83;;
5042;SDS011;2540;50.928;6.856;2022-10-16T14:43:49;1.00;;;0.73;;
5042;SDS011;2540;50.928;6.856;2022-10-16T14:46:15;1.77;;;0.70;;
5042;SDS011;2540;50.928;6.856;2022-10-16T14:48:48;2.43;;;0.90;;
5042;SDS011;2540;50.928;6.856;2022-10-16T14:51:15;1.73;;;0.80;;
5042;SDS011;2540;50.928;6.856;2022-10-16T14:53:40;0.77;;;0.60;;
5042;SDS011;2540;50.928;6.856;2022-10-16T14:56:06;0.90;;;0.70;;
5042;SDS011;2540;50.928;6.856;2022-10-16T14:58:35;1.37;;;0.67;;
5042;SDS011;2540;50.928;6.856;2022-10-16T15:01:03;0.60;;;0.60;;
5042;SDS011;2540;50.928;6.856;2022-10-16T15:03:31;0.60;;;0.60;;
5042;SDS011;2540;50.928;6.856;2022-10-16T15:05:59;4.70;;;1.00;;
5042;SDS011;2540;50.928;6.856;2022-10-16T15:08:25;1.60;;;0.83;;
5042;SDS011;2540;50.928;6.856;2022-10-16T15:10:50;2.10;;;0.90;;
5042;SDS011;2540;50.928;6.856;2022-10-16T15:13:16;1.50;;;1.00;;
5042;SDS011;2540;50.928;6.856;2022-10-16T15:15:45;5.90;;;1.27;;
5042;SDS011;2540;50.928;6.856;2022-10-16T15:18:16;1.50;;;1.00;;
5042;SDS011;2540;50.928;6.856;2022-10-16T15:20:47;1.27;;;0.93;;
5042;SDS011;2540;50.928;6.856;2022-10-16T15:23:14;1.70;;;1.10;;
5042;SDS011;2540;50.928;6.856;2022-10-16T15:28:08;1.60;;;0.97;;
5042;SDS011;2540;50.928;6.856;2022-10-16T15:30:33;1.70;;;0.97;;
5042;SDS011;2540;50.928;6.856;2022-10-16T15:32:59;0.97;;;0.87;;
5042;SDS011;2540;50.928;6.856;2022-10-16T15:35:24;2.53;;;1.20;;
5042;SDS011;2540;50.928;6.856;2022-10-16T15:37:49;1.10;;;1.00;;
5042;SDS011;2540;50.928;6.856;2022-10-16T15:40:15;4.33;;;0.90;;
5042;SDS011;2540;50.928;6.856;2022-10-16T15:42:40;1.03;;;0.90;;
5042;SDS011;2540;50.928;6.856;2022-10-16T15:45:06;3.33;;;0.93;;
5042;SDS011;2540;50.928;6.856;2022-10-16T15:47:31;0.93;;;0.83;;
5042;SDS011;2540;50.928;6.856;2022-10-16T15:49:57;1.83;;;0.90;;
5042;SDS011;2540;50.928;6.856;2022-10-16T15:52:22;3.50;;;1.03;;
5042;SDS011;2540;50.928;6.856;2022-10-16T15:54:47;3.07;;;1.00;;
5042;SDS011;2540;50.928;6.856;2022-10-16T15:57:13;1.53;;;1.07;;
5042;SDS011;2540;50.928;6.856;2022-10-16T15:59:38;2.23;;;1.10;;
5042;SDS011;2540;50.928;6.856;2022-10-16T16:02:03;5.60;;;0.70;;
5042;SDS011;2540;50.928;6.856;2022-10-16T16:04:31;6.20;;;1.17;;
5042;SDS011;2540;50.928;6.856;2022-10-16T16:06:56;3.67;;;1.00;;
5042;SDS011;2540;50.928;6.856;2022-10-16T16:09:22;3.97;;;0.90;;
5042;SDS011;2540;50.928;6.856;2022-10-16T16:11:48;0.83;;;0.80;;
5042;SDS011;2540;50.928;6.856;2022-10-16T16:14:14;1.03;;;0.83;;
5042;SDS011;2540;50.928;6.856;2022-10-16T16:16:39;1.13;;;1.03;;
5042;SDS011;2540;50.928;6.856;2022-10-16T16:19:06;2.73;;;0.73;;
5042;SDS011;2540;50.928;6.856;2022-10-16T16:21:32;1.83;;;0.80;;
5042;SDS011;2540;50.928;6.856;2022-10-16T16:23:57;2.60;;;0.90;;
5042;SDS011;2540;50.928;6.856;2022-10-16T16:26:27;2.40;;;1.00;;
5042;SDS011;2540;50.928;6.856;2022-10-16T16:28:54;0.60;;;0.60;;
5042;SDS011;2540;50.928;6.856;2022-10-16T16:31:20;1.47;;;0.93;;
5042;SDS011;2540;50.928;6.856;2022-10-16T16:33:48;1.63;;;1.00;;
5042;SDS011;2540;50.928;6.856;2022-10-16T16:36:13;4.30;;;1.10;;
5042;SDS011;2540;50.928;6.856;2022-10-16T16:38:38;0.90;;;0.90;;
5042;SDS011;2540;50.928;6.856;2022-10-16T16:43:47;1.27;;;0.73;;
5042;SDS011;2540;50.928;6.856;2022-10-16T16:46:13;2.23;;;0.97;;
5042;SDS011;2540;50.928;6.856;2022-10-16T16:48:39;3.63;;;1.00;;
5042;SDS011;2540;50.928;6.856;2022-10-16T16:51:05;9.20;;;1.80;;